メインページ
METAR-TAF:

METAR-TAF

空港 :

ニューヨーク / ラガーディア, ニューヨーク, アメリカ合衆国

ラガーディア空港

緯度: 40-46-45N, 経度: 073-52-48W, 海抜: 6m

現時点の気象観測

当レポートは46分前の21:51(UTC)に作成
の風 8kt
気温 24°C
湿度 50%
気圧 1021 hPa
視程: 16.1km
高度4500ftの雲は散在している
高度25000ftの千切れ雲あり

METAR: KLGA 262151Z 18008KT 10SM SCT045 BKN250 24/13 A3016 RMK AO2 SLP211 T02390133

時間: 18:37 (22:37 UTC)

予報

当レポートは1時間4分前の21:33(UTC)に作成
予報は26日の 22時(UTC)から 27日の 18時(UTC)まで有効
の風 8kt
視程: 10km
高度4500ftの雲はほとんどない
高度25000ftの雲は散在している
27日の 0400時(UTC)から
変向風 4kt
視程: 10km
高度25000ftの雲は散在している
27日の 1400時(UTC)から
南西の風 6kt
視程: 10km
高度5000ftの雲はほとんどない
高度12000ftの雲は散在している
27日の 1700時(UTC)から
南/南西の風 9kt
視程: 10km
高度4500ftの千切れ雲あり

TAF: KLGA 262133Z 2622/2718 17008KT P6SM FEW045 SCT250 FM270400 VRB04KT P6SM SCT250 FM271400 23006KT P6SM FEW050 SCT120 FM271700 20009KT P6SM BKN045

4,000以上の空港の気象観測と天気予報(METAR報とTAF報)

利用可能な観測所は地図上に黄色い丸と赤い丸で示す。

丸の上にカーソルを重ねると観測所名を参照できる。

次にクリックすると気象観測と天気予報を参照できる。

マップの切り替え:黒色「×」印の緑ボタンをクリックして拡大、「-」印の緑ボタンをクリックして縮小、緑色の三角印をクリックして隣りの地図に切り替え


METAR-TAF: